»·PEaware :: N782S KONT-KSBA

N782S :: KONT-KSBA

FLIGHT INFORMATION

Flight Status: Arrived
Operator: Privately registered:
United States
More flights under this callsign
Pilot: Matt D. (322)
Aircraft: CHRISTEN A-1 HUSKY
(HUSK)
More flights by this aircraft type
Origin: KONT Ontario Intl
United States
Destination: KSBA Santa Barbara Mun
United States
More flights between these airports :: More routes between these airports
Route: PDZ V186 DEANO V27 KWANG
File this flight plan on PilotEdge
Remarks: REQ VISUAL APPROACH IF CONDITIONS ALLOW.
Altitude:
(Current/Filed)
6,000ft
Speed:
(Current/Filed)
110kts
Departed: 11-Jan-14 09:34 PM
Arrived: 11-Jan-14 10:39 PM
Distance/Time
Traveled:
113nm/1:04
Distance/Time
To Go:
Arrived

Flight Plot

Page will automatically refresh every two minutes.


Map Options




Map Legend


Flown Route
Filed Route
Departure Airport
Arrival Airport
Navaid (VOR, NDB)
Fix

Horizontal Profiles

Position Reports

Time Latitude Longitude Heading Altitude Ground
Speed
11-Jan-14 21:09 34.052560 -117.609181 95 947ft 0kts
11-Jan-14 21:10 34.052560 -117.609181 95 947ft 0kts
11-Jan-14 21:11 34.052560 -117.609181 95 947ft 0kts
11-Jan-14 21:12 34.052560 -117.609181 95 947ft 0kts
11-Jan-14 21:13 34.051964 -117.601334 95 947ft 0kts
11-Jan-14 21:14 34.051964 -117.601334 95 947ft 0kts
11-Jan-14 21:15 34.051964 -117.601334 95 947ft 0kts
11-Jan-14 21:16 34.051964 -117.601334 95 947ft 0kts
11-Jan-14 21:17 34.051964 -117.601334 95 947ft 0kts
11-Jan-14 21:18 34.051964 -117.601334 95 947ft 0kts
11-Jan-14 21:19 34.051964 -117.601334 95 947ft 0kts
11-Jan-14 21:20 34.051964 -117.601334 95 947ft 0kts
11-Jan-14 21:21 34.051964 -117.601334 95 947ft 0kts
11-Jan-14 21:22 34.051964 -117.601334 95 947ft 0kts
11-Jan-14 21:23 34.051964 -117.601334 95 947ft 0kts
11-Jan-14 21:24 34.052919 -117.600799 280 947ft 9kts
11-Jan-14 21:25 34.053821 -117.601525 87 947ft 10kts
11-Jan-14 21:26 34.053850 -117.597962 86 947ft 12kts
11-Jan-14 21:27 34.053840 -117.594127 90 947ft 11kts
11-Jan-14 21:28 34.053849 -117.590131 87 947ft 11kts
11-Jan-14 21:29 34.053825 -117.586008 86 947ft 11kts
11-Jan-14 21:30 34.053809 -117.583072 80 947ft 9kts
11-Jan-14 21:31 34.054106 -117.582394 358 947ft 0kts
11-Jan-14 21:32 34.054982 -117.583783 267 947ft 49kts
11-Jan-14 21:33 34.054361 -117.604015 265 1774ft 88kts
11-Jan-14 21:34 34.054495 -117.637847 275 3157ft 80kts
11-Jan-14 21:35 34.045102 -117.653984 233 4122ft 81kts
11-Jan-14 21:36 34.031387 -117.674677 234 5366ft 81kts
11-Jan-14 21:37 34.016421 -117.698373 243 5716ft 126kts
11-Jan-14 21:38 33.987007 -117.737176 244 6003ft 121kts
11-Jan-14 21:39 33.984206 -117.770035 306 6068ft 116kts
11-Jan-14 21:40 34.006027 -117.789483 340 6011ft 118kts
11-Jan-14 21:41 34.020587 -117.823583 294 6004ft 121kts
11-Jan-14 21:42 34.032075 -117.861125 295 6003ft 122kts
11-Jan-14 21:43 34.043474 -117.897140 295 6003ft 122kts
11-Jan-14 21:44 34.055225 -117.933217 296 5776ft 123kts
11-Jan-14 21:45 34.066984 -117.968171 296 5984ft 121kts
11-Jan-14 21:46 34.078296 -118.002546 296 5983ft 122kts
11-Jan-14 21:46 34.088334 -118.033018 296 5982ft 122kts
11-Jan-14 21:47 34.100544 -118.070113 296 5982ft 122kts
11-Jan-14 21:49 34.108950 -118.111636 280 5982ft 121kts
11-Jan-14 21:50 34.112525 -118.143656 283 5984ft 122kts
11-Jan-14 21:51 34.123033 -118.180340 298 5984ft 122kts
11-Jan-14 21:52 34.136805 -118.216801 299 5982ft 122kts
11-Jan-14 21:53 34.149948 -118.259099 294 5953ft 122kts
11-Jan-14 21:54 34.157654 -118.283769 294 5953ft 120kts
11-Jan-14 21:55 34.168759 -118.316917 295 5943ft 122kts
11-Jan-14 21:56 34.180360 -118.350672 295 5943ft 124kts
11-Jan-14 21:57 34.191736 -118.387285 293 5943ft 126kts
11-Jan-14 21:58 34.203313 -118.425442 293 5957ft 125kts
11-Jan-14 21:59 34.214925 -118.462820 294 5983ft 127kts
11-Jan-14 22:00 34.229114 -118.507190 295 5972ft 121kts
11-Jan-14 22:01 34.239386 -118.537999 296 5972ft 120kts
11-Jan-14 22:02 34.243587 -118.576104 269 5971ft 121kts
11-Jan-14 22:03 34.244294 -118.615660 279 5972ft 122kts
11-Jan-14 22:04 34.246875 -118.655903 279 5972ft 122kts
11-Jan-14 22:05 34.249474 -118.695138 279 5972ft 122kts
11-Jan-14 22:06 34.252110 -118.734713 279 5972ft 122kts
11-Jan-14 22:07 34.254776 -118.774515 279 5972ft 122kts
11-Jan-14 22:08 34.257516 -118.815480 279 5962ft 122kts
11-Jan-14 22:09 34.260423 -118.855479 279 5963ft 121kts
11-Jan-14 22:10 34.264010 -118.895975 279 5961ft 123kts
11-Jan-14 22:11 34.267450 -118.936644 279 5961ft 125kts
11-Jan-14 22:12 34.270592 -118.977791 279 5962ft 125kts
11-Jan-14 22:13 34.273513 -119.019379 279 5962ft 126kts
11-Jan-14 22:14 34.276332 -119.061106 279 5962ft 126kts
11-Jan-14 22:15 34.279013 -119.102426 279 5962ft 126kts
11-Jan-14 22:16 34.281673 -119.144053 279 5962ft 126kts
11-Jan-14 22:17 34.284330 -119.185933 279 5962ft 126kts
11-Jan-14 22:18 34.287418 -119.227432 279 5963ft 123kts
11-Jan-14 22:19 34.290507 -119.267353 279 5961ft 120kts
11-Jan-14 22:20 34.293252 -119.307706 279 5962ft 121kts
11-Jan-14 22:21 34.295965 -119.348579 279 5962ft 121kts
11-Jan-14 22:22 34.298701 -119.389281 279 5962ft 122kts
11-Jan-14 22:23 34.301465 -119.429809 280 5962ft 122kts
11-Jan-14 22:25 34.316594 -119.505138 290 5962ft 122kts
11-Jan-14 22:26 34.325143 -119.544332 289 5962ft 122kts
11-Jan-14 22:27 34.333482 -119.579859 292 5697ft 112kts
11-Jan-14 22:28 34.343243 -119.619147 289 5068ft 125kts
11-Jan-14 22:29 34.352043 -119.658424 299 4469ft 117kts
11-Jan-14 22:30 34.365276 -119.696192 299 3638ft 120kts
11-Jan-14 22:30 34.380445 -119.719820 333 3323ft 105kts
11-Jan-14 22:32 34.405213 -119.745544 318 3366ft 82kts
11-Jan-14 22:33 34.419206 -119.760946 329 2761ft 78kts
11-Jan-14 22:34 34.429944 -119.782357 266 917ft 90kts
11-Jan-14 22:35 34.428212 -119.804414 272 607ft 54kts
11-Jan-14 22:36 34.428204 -119.821358 264 295ft 52kts
11-Jan-14 22:37 34.427780 -119.836354 254 16ft 12kts
11-Jan-14 22:38 34.428689 -119.838154 352 15ft 0kts
11-Jan-14 22:39 34.429897 -119.838552 343 16ft 0kts
11-Jan-14 22:40 34.430823 -119.838833 357 16ft 1kts
11-Jan-14 22:41 34.430410 -119.840681 251 16ft 10kts
11-Jan-14 22:42 34.430405 -119.842865 225 16ft 0kts
11-Jan-14 22:43 34.430405 -119.842865 225 16ft 0kts
11-Jan-14 22:44 34.430405 -119.842865 225 16ft 0kts
11-Jan-14 22:45 34.430405 -119.842865 225 16ft 0kts
11-Jan-14 22:46 34.430405 -119.842865 225 16ft 0kts
11-Jan-14 22:47 34.430405 -119.842865 225 16ft 0kts
11-Jan-14 22:48 34.430405 -119.842865 225 16ft 0kts
11-Jan-14 22:49 34.430405 -119.842865 225 16ft 0kts
11-Jan-14 22:50 34.430405 -119.842865 225 16ft 0kts

Navigation Log

Ident Type
Flight plan parsing failed, navigation log unavailable